createdAt,value
2018-07-27T00:00:24.831Z,0
2018-07-27T00:01:25.081Z,0
2018-07-27T00:02:25.076Z,0
2018-07-27T00:03:24.822Z,0
2018-07-27T00:04:24.856Z,0
2018-07-27T00:05:24.815Z,0
2018-07-27T00:06:24.832Z,0
2018-07-27T00:07:24.818Z,0
2018-07-27T00:08:25.070Z,0
2018-07-27T00:09:25.078Z,0
2018-07-27T00:10:37.803Z,0
2018-07-27T00:11:25.062Z,0
2018-07-27T00:12:25.060Z,0
2018-07-27T00:13:25.081Z,0
2018-07-27T00:14:25.063Z,0
2018-07-27T00:15:25.056Z,0
2018-07-27T00:16:24.809Z,0
2018-07-27T00:17:24.801Z,0
2018-07-27T00:18:24.808Z,0
2018-07-27T00:19:25.288Z,0
2018-07-27T00:20:25.058Z,0
2018-07-27T00:21:25.053Z,0
2018-07-27T00:22:25.058Z,0
2018-07-27T00:23:25.049Z,0
2018-07-27T00:24:25.052Z,0
2018-07-27T00:25:25.038Z,0
2018-07-27T00:26:25.041Z,0
2018-07-27T00:27:24.784Z,0
2018-07-27T00:28:25.039Z,0
2018-07-27T00:29:25.042Z,0
2018-07-27T00:30:25.047Z,0
2018-07-27T00:31:25.034Z,0
2018-07-27T00:32:25.030Z,0
2018-07-27T00:33:25.037Z,0
2018-07-27T00:34:25.029Z,0
2018-07-27T00:35:25.037Z,0
2018-07-27T00:36:24.772Z,0
2018-07-27T00:37:24.517Z,0
2018-07-27T00:38:25.032Z,0
2018-07-27T00:39:25.024Z,0
2018-07-27T00:40:25.024Z,0
2018-07-27T00:41:25.014Z,0
2018-07-27T00:42:24.774Z,0
2018-07-27T00:43:25.033Z,0
2018-07-27T00:44:25.031Z,0
2018-07-27T00:45:24.508Z,0
2018-07-27T00:46:25.016Z,0
2018-07-27T00:47:25.032Z,0
2018-07-27T00:48:25.019Z,0
2018-07-27T00:49:24.752Z,0
2018-07-27T00:50:25.000Z,0
2018-07-27T00:51:24.745Z,0
2018-07-27T00:52:25.012Z,0
2018-07-27T00:53:24.743Z,0
2018-07-27T00:54:24.495Z,0
2018-07-27T00:55:24.741Z,0
2018-07-27T00:56:24.990Z,0
2018-07-27T00:57:31.251Z,0
2018-07-27T00:58:24.733Z,0
2018-07-27T00:59:24.994Z,0
2018-07-27T01:00:24.484Z,0
2018-07-27T01:01:24.982Z,0
2018-07-27T01:02:24.982Z,0
2018-07-27T01:03:24.730Z,0
2018-07-27T01:04:24.752Z,0
2018-07-27T01:05:24.723Z,0
2018-07-27T01:06:24.986Z,0
2018-07-27T01:07:24.723Z,0
2018-07-27T01:08:24.982Z,0
2018-07-27T01:09:24.964Z,0
2018-07-27T01:10:24.967Z,0
2018-07-27T01:11:24.719Z,0
2018-07-27T01:12:24.965Z,0
2018-07-27T01:13:24.709Z,0
2018-07-27T01:14:24.458Z,0
2018-07-27T01:15:24.955Z,0
2018-07-27T01:16:24.712Z,0
2018-07-27T01:17:24.965Z,0
2018-07-27T01:18:24.954Z,0
2018-07-27T01:19:25.908Z,0
2018-07-27T01:20:24.450Z,0
2018-07-27T01:21:24.960Z,0
2018-07-27T01:22:24.941Z,0
2018-07-27T01:23:24.951Z,0
2018-07-27T01:24:24.704Z,0
2018-07-27T01:25:24.934Z,0
2018-07-27T01:26:24.929Z,0
2018-07-27T01:27:24.680Z,0
2018-07-27T01:28:24.429Z,0
2018-07-27T01:29:24.675Z,0
2018-07-27T01:30:24.953Z,0
2018-07-27T01:31:24.922Z,0
2018-07-27T01:32:24.918Z,0
2018-07-27T01:33:28.808Z,0
2018-07-27T01:34:24.672Z,0
2018-07-27T01:35:24.930Z,0
2018-07-27T01:36:24.919Z,0
2018-07-27T01:37:39.585Z,0
2018-07-27T01:38:24.904Z,0
2018-07-27T01:40:24.957Z,0
2018-07-27T01:41:29.713Z,0
2018-07-27T01:42:24.897Z,0
2018-07-27T01:43:24.916Z,0
2018-07-27T01:44:24.893Z,0
2018-07-27T01:45:24.895Z,0
2018-07-27T01:46:24.640Z,0
2018-07-27T01:47:24.889Z,0
2018-07-27T01:48:24.884Z,0
2018-07-27T01:49:24.880Z,0
2018-07-27T01:50:24.888Z,0
2018-07-27T01:51:24.884Z,0
2018-07-27T01:52:24.877Z,0
2018-07-27T01:53:24.634Z,0
2018-07-27T01:54:24.889Z,0
2018-07-27T01:55:24.873Z,0
2018-07-27T01:56:24.870Z,0
2018-07-27T01:57:24.870Z,0
2018-07-27T01:58:24.363Z,0
2018-07-27T01:59:24.866Z,0
2018-07-27T02:00:24.866Z,0
2018-07-27T02:01:24.890Z,0
2018-07-27T02:02:24.857Z,0
2018-07-27T02:03:24.853Z,0
2018-07-27T02:04:24.854Z,0
2018-07-27T02:05:24.851Z,0
2018-07-27T02:06:24.852Z,0
2018-07-27T02:07:24.848Z,0
2018-07-27T02:08:24.598Z,0
2018-07-27T02:09:24.590Z,0
2018-07-27T02:10:24.332Z,0
2018-07-27T02:11:24.839Z,0
2018-07-27T02:12:24.588Z,0
2018-07-27T02:13:24.583Z,0
2018-07-27T02:14:24.577Z,0
2018-07-27T02:15:24.575Z,0
2018-07-27T02:16:24.880Z,0
2018-07-27T02:17:24.828Z,0
2018-07-27T02:18:24.888Z,0
2018-07-27T02:19:24.817Z,0
2018-07-27T02:20:24.823Z,0
2018-07-27T02:21:24.822Z,0
2018-07-27T02:22:24.556Z,0
2018-07-27T02:23:24.813Z,0
2018-07-27T02:24:24.299Z,0
2018-07-27T02:25:24.809Z,0
2018-07-27T02:26:24.797Z,0
2018-07-27T02:27:24.800Z,0
2018-07-27T02:28:24.794Z,0
2018-07-27T02:29:24.798Z,0
2018-07-27T02:30:24.305Z,0
2018-07-27T02:32:24.545Z,0
2018-07-27T02:33:24.788Z,0
2018-07-27T02:34:24.800Z,0
2018-07-27T02:35:30.829Z,0
2018-07-27T02:36:26.057Z,0
2018-07-27T02:38:24.775Z,0
2018-07-27T02:39:30.784Z,0
2018-07-27T02:40:24.783Z,0
2018-07-27T02:41:24.771Z,0
2018-07-27T02:42:24.519Z,0
2018-07-27T02:43:24.773Z,0
2018-07-27T02:44:24.505Z,0
2018-07-27T02:45:24.763Z,0
2018-07-27T02:46:24.502Z,0
2018-07-27T02:47:24.502Z,0
2018-07-27T02:48:24.758Z,0
2018-07-27T02:49:24.502Z,0
2018-07-27T02:50:24.492Z,0
2018-07-27T02:51:24.783Z,0
2018-07-27T02:52:24.744Z,0
2018-07-27T02:53:24.742Z,0
2018-07-27T02:54:24.747Z,0
2018-07-27T02:55:24.731Z,0
2018-07-27T02:56:24.880Z,0
2018-07-27T02:57:24.726Z,0
2018-07-27T02:58:24.726Z,0
2018-07-27T02:59:24.714Z,0
2018-07-27T03:00:24.717Z,0
2018-07-27T03:01:24.211Z,0
2018-07-27T03:02:24.732Z,0
2018-07-27T03:03:24.715Z,0
2018-07-27T03:04:24.275Z,0
2018-07-27T03:05:24.198Z,5
2018-07-27T03:06:24.713Z,5
2018-07-27T03:07:24.202Z,5
2018-07-27T03:08:24.699Z,5
2018-07-27T03:09:24.453Z,5
2018-07-27T03:10:24.686Z,5
2018-07-27T03:11:24.689Z,5
2018-07-27T03:12:24.688Z,5
2018-07-27T03:13:24.693Z,10
2018-07-27T03:14:24.781Z,10
2018-07-27T03:15:29.748Z,10
2018-07-27T03:16:24.424Z,10
2018-07-27T03:17:24.670Z,10
2018-07-27T03:18:24.424Z,10
2018-07-27T03:19:24.671Z,15
2018-07-27T03:20:24.679Z,15
2018-07-27T03:21:24.659Z,15
2018-07-27T03:22:24.675Z,15
2018-07-27T03:23:24.667Z,20
2018-07-27T03:24:24.658Z,20
2018-07-27T03:25:24.663Z,20
2018-07-27T03:26:24.648Z,20
2018-07-27T03:27:24.643Z,25
2018-07-27T03:28:24.637Z,25
2018-07-27T03:29:24.138Z,25
2018-07-27T03:30:24.410Z,30
2018-07-27T03:31:24.652Z,30
2018-07-27T03:32:24.636Z,30
2018-07-27T03:33:24.677Z,35
2018-07-27T03:34:24.626Z,35
2018-07-27T03:35:23.867Z,35
2018-07-27T03:36:24.395Z,40
2018-07-27T03:37:24.622Z,40
2018-07-27T03:38:24.302Z,45
2018-07-27T03:39:24.623Z,45
2018-07-27T03:40:24.623Z,45
2018-07-27T03:41:24.614Z,50
2018-07-27T03:42:24.782Z,50
2018-07-27T03:43:24.355Z,55
2018-07-27T03:44:24.349Z,55
2018-07-27T03:45:24.101Z,60
2018-07-27T03:46:24.348Z,60
2018-07-27T03:47:24.599Z,60
2018-07-27T03:48:24.598Z,65
2018-07-27T03:49:24.340Z,65
2018-07-27T03:50:24.604Z,65
2018-07-27T03:51:24.078Z,65
2018-07-27T03:52:24.585Z,70
2018-07-27T03:53:24.576Z,75
2018-07-27T03:54:24.593Z,80
2018-07-27T03:55:24.074Z,85
2018-07-27T03:56:24.570Z,90
2018-07-27T03:57:24.563Z,95
2018-07-27T03:58:24.569Z,100
2018-07-27T03:59:24.571Z,105
2018-07-27T04:00:24.368Z,105
2018-07-27T04:01:24.564Z,110
2018-07-27T04:02:25.000Z,115
2018-07-27T04:03:24.300Z,120
2018-07-27T04:04:24.310Z,125
2018-07-27T04:05:24.303Z,130
2018-07-27T04:06:24.550Z,130
2018-07-27T04:07:24.910Z,135
2018-07-27T04:08:24.595Z,140
2018-07-27T04:09:24.547Z,145
2018-07-27T04:10:24.300Z,150
2018-07-27T04:11:24.290Z,155
2018-07-27T04:12:24.550Z,155
2018-07-27T04:13:24.291Z,165
2018-07-27T04:14:24.290Z,170
2018-07-27T04:15:24.584Z,175
2018-07-27T04:16:24.290Z,180
2018-07-27T04:17:24.535Z,180
2018-07-27T04:18:24.532Z,190
2018-07-27T04:19:24.531Z,195
2018-07-27T04:20:24.281Z,200
2018-07-27T04:21:24.533Z,205
2018-07-27T04:22:24.679Z,205
2018-07-27T04:23:24.533Z,210
2018-07-27T04:24:24.027Z,220
2018-07-27T04:25:24.529Z,225
2018-07-27T04:26:24.616Z,225
2018-07-27T04:27:24.540Z,230
2018-07-27T04:28:24.533Z,235
2018-07-27T04:29:24.532Z,240
2018-07-27T04:30:24.536Z,250
2018-07-27T04:31:24.304Z,255
2018-07-27T04:32:24.572Z,260
2018-07-27T04:33:24.555Z,260
2018-07-27T04:34:24.287Z,270
2018-07-27T04:35:24.543Z,275
2018-07-27T04:36:24.555Z,285
2018-07-27T04:37:24.548Z,285
2018-07-27T04:38:24.560Z,295
2018-07-27T04:39:24.545Z,300
2018-07-27T04:40:24.557Z,315
2018-07-27T04:41:24.352Z,315
2018-07-27T04:42:24.557Z,320
2018-07-27T04:43:24.315Z,325
2018-07-27T04:44:24.572Z,335
2018-07-27T04:45:24.572Z,340
2018-07-27T04:46:24.314Z,345
2018-07-27T04:47:24.587Z,350
2018-07-27T04:48:24.588Z,360
2018-07-27T04:49:24.809Z,370
2018-07-27T04:50:24.340Z,375
2018-07-27T04:51:24.340Z,380
2018-07-27T04:52:24.085Z,385
2018-07-27T04:53:24.103Z,395
2018-07-27T04:54:24.348Z,395
2018-07-27T04:55:24.613Z,405
2018-07-27T04:56:24.796Z,410
2018-07-27T04:57:24.110Z,415
2018-07-27T04:58:24.621Z,425
2018-07-27T04:59:24.372Z,435
2018-07-27T05:00:24.633Z,440
2018-07-27T05:01:24.380Z,445
2018-07-27T05:02:24.141Z,455
2018-07-27T05:03:24.659Z,460
2018-07-27T05:04:24.400Z,465
2018-07-27T05:05:24.408Z,470
2018-07-27T05:06:24.681Z,475
2018-07-27T05:07:24.421Z,480
2018-07-27T05:08:24.430Z,485
2018-07-27T05:09:24.684Z,495
2018-07-27T05:10:24.769Z,505
2018-07-27T05:11:24.195Z,510
2018-07-27T05:12:24.721Z,520
2018-07-27T05:13:24.713Z,535
2018-07-27T05:14:24.753Z,545
2018-07-27T05:15:24.721Z,555
2018-07-27T05:16:24.732Z,555
2018-07-27T05:17:24.532Z,560
2018-07-27T05:18:25.173Z,570
2018-07-27T05:19:24.753Z,580
2018-07-27T05:20:24.759Z,580
2018-07-27T05:21:24.517Z,580
2018-07-27T05:22:25.941Z,580
2018-07-27T05:23:24.786Z,580
2018-07-27T05:24:24.794Z,585
2018-07-27T05:25:43.753Z,580
2018-07-27T05:26:24.556Z,585
2018-07-27T05:27:24.821Z,595
2018-07-27T05:28:24.832Z,600
2018-07-27T05:29:24.888Z,605
2018-07-27T05:30:24.844Z,615
2018-07-27T05:31:24.858Z,630
2018-07-27T05:32:24.868Z,645
2018-07-27T05:33:24.626Z,655
2018-07-27T05:34:25.149Z,670
2018-07-27T05:35:24.395Z,685
2018-07-27T05:36:24.646Z,700
2018-07-27T05:37:24.663Z,720
2018-07-27T05:38:24.665Z,750
2018-07-27T05:39:24.933Z,770
2018-07-27T05:40:37.168Z,790
2018-07-27T05:41:24.454Z,795
2018-07-27T05:42:26.235Z,810
2018-07-27T05:44:24.984Z,825
2018-07-27T05:45:24.737Z,840
2018-07-27T05:46:24.749Z,855
2018-07-27T05:47:25.125Z,865
2018-07-27T05:48:25.028Z,865
2018-07-27T05:49:25.032Z,870
2018-07-27T05:50:24.794Z,880
2018-07-27T05:51:25.076Z,875
2018-07-27T05:52:24.557Z,880
2018-07-27T05:53:24.829Z,885
2018-07-27T05:54:25.091Z,890
2018-07-27T05:55:25.104Z,900
2018-07-27T05:56:25.110Z,920
2018-07-27T05:57:24.888Z,945
2018-07-27T05:58:24.922Z,960
2018-07-27T05:59:25.111Z,990
2018-07-27T06:00:25.151Z,995
2018-07-27T06:01:25.522Z,1005
2018-07-27T06:02:26.612Z,1010
2018-07-27T06:03:24.956Z,1010
2018-07-27T06:04:25.210Z,1020
2018-07-27T06:05:24.968Z,1025
2018-07-27T06:06:24.977Z,1045
2018-07-27T06:07:25.237Z,1035
2018-07-27T06:08:25.009Z,1045
2018-07-27T06:09:25.308Z,1055
2018-07-27T06:10:25.022Z,1055
2018-07-27T06:11:25.130Z,1065
2018-07-27T06:12:24.796Z,1075
2018-07-27T06:13:24.821Z,1070
2018-07-27T06:14:25.148Z,1075
2018-07-27T06:15:25.087Z,1090
2018-07-27T06:16:25.355Z,1090
2018-07-27T06:17:25.114Z,1105
2018-07-27T06:18:25.515Z,1130
2018-07-27T06:19:25.416Z,1155
2018-07-27T06:20:25.403Z,1165
2018-07-27T06:21:25.175Z,1170
2018-07-27T06:22:25.190Z,1190
2018-07-27T06:23:25.193Z,1195
2018-07-27T06:24:26.230Z,1200
2018-07-27T06:25:25.483Z,1225
2018-07-27T06:26:25.492Z,1240
2018-07-27T06:27:25.265Z,1255
2018-07-27T06:28:25.383Z,1260
2018-07-27T06:29:25.821Z,1260
2018-07-27T06:30:25.561Z,1275
2018-07-27T06:31:25.556Z,1285
2018-07-27T06:32:25.579Z,1295
2018-07-27T06:33:25.346Z,1300
2018-07-27T06:34:25.616Z,1305
2018-07-27T06:35:25.361Z,1305
2018-07-27T06:36:25.626Z,1315
2018-07-27T06:37:25.648Z,1320
2018-07-27T06:38:25.419Z,1335
2018-07-27T06:39:25.422Z,1355
2018-07-27T06:40:25.444Z,1370
2018-07-27T06:41:25.206Z,1385
2018-07-27T06:42:25.713Z,1385
2018-07-27T06:43:25.739Z,1395
2018-07-27T06:44:25.494Z,1405
2018-07-27T06:45:25.699Z,1405
2018-07-27T06:46:25.525Z,1420
2018-07-27T06:47:25.812Z,1420
2018-07-27T06:48:25.558Z,1435
2018-07-27T06:49:25.318Z,1450
2018-07-27T06:50:25.589Z,1475
2018-07-27T06:51:25.878Z,1495
2018-07-27T06:52:26.028Z,1520
2018-07-27T06:53:25.890Z,1530
2018-07-27T06:54:25.897Z,1550
2018-07-27T06:55:25.675Z,1570
2018-07-27T06:56:25.937Z,1580
2018-07-27T06:57:25.693Z,1575
2018-07-27T06:58:25.975Z,1580
2018-07-27T06:59:25.979Z,1575
2018-07-27T07:00:25.744Z,1575
2018-07-27T07:01:25.765Z,1580
2018-07-27T07:02:25.273Z,1585
2018-07-27T07:03:26.239Z,1615
2018-07-27T07:04:26.134Z,1610
2018-07-27T07:05:25.839Z,1620
2018-07-27T07:06:25.851Z,1635
2018-07-27T07:07:26.110Z,1660
2018-07-27T07:08:26.287Z,1680
2018-07-27T07:09:26.205Z,1675
2018-07-27T07:10:25.912Z,1695
2018-07-27T07:11:25.689Z,1710
2018-07-27T07:12:25.977Z,1735
2018-07-27T07:13:26.216Z,1755
2018-07-27T07:14:26.333Z,1765
2018-07-27T07:15:26.256Z,1785
2018-07-27T07:16:26.271Z,1800
2018-07-27T07:17:26.289Z,1810
2018-07-27T07:18:26.387Z,1820
2018-07-27T07:19:26.353Z,1830
2018-07-27T07:20:26.377Z,1830
2018-07-27T07:21:26.356Z,1830
2018-07-27T07:22:26.376Z,1790
2018-07-27T07:23:26.395Z,1720
2018-07-27T07:24:26.413Z,1680
2018-07-27T07:25:26.812Z,1700
2018-07-27T07:26:26.464Z,1710
2018-07-27T07:27:26.248Z,1720
2018-07-27T07:28:26.236Z,1735
2018-07-27T07:29:26.274Z,1745
2018-07-27T07:30:26.268Z,1765
2018-07-27T07:31:26.583Z,1780
2018-07-27T07:32:26.121Z,1780
2018-07-27T07:33:26.728Z,1800
2018-07-27T07:34:26.627Z,1805
2018-07-27T07:35:26.118Z,1820
2018-07-27T07:36:26.641Z,1835
2018-07-27T07:37:26.656Z,1860
2018-07-27T07:38:26.686Z,1895
2018-07-27T07:39:26.687Z,1905
2018-07-27T07:40:26.463Z,1905
2018-07-27T07:41:26.507Z,1920
2018-07-27T07:42:26.752Z,1890
2018-07-27T07:43:26.514Z,1825
2018-07-27T07:44:26.801Z,1695
2018-07-27T07:45:26.800Z,1655
2018-07-27T07:46:26.863Z,1675
2018-07-27T07:47:26.868Z,1690
2018-07-27T07:48:26.358Z,1685
2018-07-27T07:49:26.511Z,1700
2018-07-27T07:50:26.899Z,1740
2018-07-27T07:51:26.402Z,1760
2018-07-27T07:52:26.926Z,1800
2018-07-27T07:53:26.689Z,1830
2018-07-27T07:54:26.958Z,1865
2018-07-27T07:55:26.981Z,1900
2018-07-27T07:56:26.492Z,1935
2018-07-27T07:57:26.767Z,1985
2018-07-27T07:58:27.041Z,1980
2018-07-27T07:59:27.054Z,1970
2018-07-27T08:00:27.081Z,1950
2018-07-27T08:01:26.850Z,1935
2018-07-27T08:02:26.857Z,1920
2018-07-27T08:03:27.128Z,2075
2018-07-27T08:04:27.093Z,2415
2018-07-27T08:05:27.374Z,2605
2018-07-27T08:06:27.192Z,2635
2018-07-27T08:07:27.208Z,2720
2018-07-27T08:08:27.222Z,2710
2018-07-27T08:09:26.475Z,2725
2018-07-27T08:10:27.006Z,2735
2018-07-27T08:11:27.437Z,2760
2018-07-27T08:12:27.301Z,2780
2018-07-27T08:13:27.311Z,2795
2018-07-27T08:14:28.518Z,2795
2018-07-27T08:15:27.341Z,2790
2018-07-27T08:16:27.106Z,2740
2018-07-27T08:17:27.671Z,2630
2018-07-27T08:18:27.145Z,2555
2018-07-27T08:19:26.915Z,2450
2018-07-27T08:20:26.935Z,2415
2018-07-27T08:21:27.205Z,2285
2018-07-27T08:22:29.576Z,1845
2018-07-27T08:23:27.007Z,1745
2018-07-27T08:24:27.008Z,1770
2018-07-27T08:25:27.031Z,1790
2018-07-27T08:26:27.327Z,760
2018-07-27T08:27:27.587Z,1285
2018-07-27T08:28:27.337Z,935
2018-07-27T08:29:27.625Z,780
2018-07-27T08:30:27.124Z,600
2018-07-27T08:31:27.673Z,730
2018-07-27T08:32:27.665Z,1395
2018-07-27T08:33:27.421Z,1855
2018-07-27T08:34:27.446Z,540
2018-07-27T08:35:27.708Z,670
2018-07-27T08:36:27.475Z,740
2018-07-27T08:37:27.484Z,700
2018-07-27T08:38:27.514Z,1620
2018-07-27T08:39:27.798Z,2050
2018-07-27T08:40:27.277Z,780
2018-07-27T08:41:27.805Z,1775
2018-07-27T08:42:27.816Z,1910
2018-07-27T08:43:27.831Z,2195
2018-07-27T08:44:27.853Z,1655
2018-07-27T08:45:27.857Z,1655
2018-07-27T08:46:27.866Z,2040
2018-07-27T08:47:27.481Z,2015
2018-07-27T08:48:27.921Z,1985
2018-07-27T08:49:27.658Z,1990
2018-07-27T08:50:27.940Z,1955
2018-07-27T08:51:27.944Z,1895
2018-07-27T08:52:27.961Z,1930
2018-07-27T08:53:27.959Z,1550
2018-07-27T08:54:27.989Z,825
2018-07-27T08:55:27.759Z,555
2018-07-27T08:56:28.272Z,485
2018-07-27T08:57:28.077Z,460
2018-07-27T08:58:27.784Z,465
2018-07-27T08:59:27.815Z,485
2018-07-27T09:00:28.056Z,495
2018-07-27T09:01:27.569Z,475
2018-07-27T09:02:27.836Z,445
2018-07-27T09:03:28.095Z,385
2018-07-27T09:04:27.892Z,390
2018-07-27T09:05:28.131Z,380
2018-07-27T09:06:28.145Z,395
2018-07-27T09:07:28.138Z,410
2018-07-27T09:08:28.157Z,445
2018-07-27T09:09:28.168Z,455
2018-07-27T09:10:28.417Z,450
2018-07-27T09:11:27.935Z,435
2018-07-27T09:12:27.683Z,375
2018-07-27T09:13:28.199Z,380
2018-07-27T09:14:28.207Z,425
2018-07-27T09:15:27.960Z,450
2018-07-27T09:16:28.226Z,445
2018-07-27T09:17:28.339Z,405
2018-07-27T09:18:28.069Z,430
2018-07-27T09:19:28.018Z,440
2018-07-27T09:20:28.022Z,430
2018-07-27T09:21:28.277Z,460
2018-07-27T09:22:28.296Z,465
2018-07-27T09:23:28.322Z,405
2018-07-27T09:24:28.432Z,335
2018-07-27T09:25:29.980Z,305
2018-07-27T09:26:28.066Z,295
2018-07-27T09:27:28.322Z,295
2018-07-27T09:28:28.068Z,310
2018-07-27T09:29:28.332Z,335
2018-07-27T09:30:28.333Z,390
2018-07-27T09:31:27.845Z,445
2018-07-27T09:32:28.353Z,450
2018-07-27T09:33:27.850Z,425
2018-07-27T09:34:27.918Z,385
2018-07-27T09:35:28.045Z,335
2018-07-27T09:36:28.128Z,350
2018-07-27T09:37:28.146Z,380
2018-07-27T09:38:28.401Z,415
2018-07-27T09:39:27.893Z,430
2018-07-27T09:40:28.481Z,475
2018-07-27T09:41:28.418Z,485
2018-07-27T09:42:28.157Z,475
2018-07-27T09:43:28.165Z,450
2018-07-27T09:44:28.435Z,455
2018-07-27T09:45:28.181Z,515
2018-07-27T09:46:28.557Z,525
2018-07-27T09:47:28.454Z,525
2018-07-27T09:48:28.215Z,570
2018-07-27T09:49:28.199Z,635
2018-07-27T09:50:28.457Z,620
2018-07-27T09:51:28.471Z,580
2018-07-27T09:52:27.970Z,585
2018-07-27T09:53:28.481Z,545
2018-07-27T09:54:28.504Z,480
2018-07-27T09:55:27.997Z,405
2018-07-27T09:56:28.245Z,390
2018-07-27T09:57:28.307Z,380
2018-07-27T09:58:28.262Z,385
2018-07-27T09:59:28.532Z,395
2018-07-27T10:00:28.534Z,420
2018-07-27T10:01:28.544Z,420
2018-07-27T10:02:28.547Z,415
2018-07-27T10:03:28.297Z,430
2018-07-27T10:04:28.300Z,450
2018-07-27T10:05:28.566Z,515
2018-07-27T10:06:28.326Z,575
2018-07-27T10:07:28.331Z,590
2018-07-27T10:08:28.081Z,590
2018-07-27T10:09:28.583Z,565
2018-07-27T10:10:28.337Z,520
2018-07-27T10:11:28.597Z,465
2018-07-27T10:12:28.372Z,415
2018-07-27T10:13:28.129Z,390
2018-07-27T10:14:28.117Z,395
2018-07-27T10:15:28.134Z,380
2018-07-27T10:16:28.642Z,355
2018-07-27T10:17:28.635Z,355
2018-07-27T10:18:28.549Z,355
2018-07-27T10:19:27.904Z,350
2018-07-27T10:20:28.420Z,365
2018-07-27T10:21:28.668Z,375
2018-07-27T10:22:28.419Z,390
2018-07-27T10:23:28.680Z,415
2018-07-27T10:24:28.181Z,440
2018-07-27T10:25:28.690Z,475
2018-07-27T10:26:28.209Z,495
2018-07-27T10:27:28.457Z,490
2018-07-27T10:28:28.486Z,430
2018-07-27T10:29:28.233Z,375
2018-07-27T10:30:28.759Z,360
2018-07-27T10:31:28.764Z,345
2018-07-27T10:32:28.489Z,370
2018-07-27T10:33:28.260Z,385
2018-07-27T10:34:28.760Z,360
2018-07-27T10:35:28.773Z,340
2018-07-27T10:36:28.523Z,320
2018-07-27T10:37:28.524Z,315
2018-07-27T10:38:28.806Z,315
2018-07-27T10:39:28.538Z,325
2018-07-27T10:40:28.800Z,345
2018-07-27T10:41:28.804Z,365
2018-07-27T10:42:28.841Z,385
2018-07-27T10:43:28.322Z,415
2018-07-27T10:44:28.574Z,440
2018-07-27T10:45:28.840Z,460
2018-07-27T10:46:28.839Z,480
2018-07-27T10:47:28.856Z,510
2018-07-27T10:48:28.603Z,535
2018-07-27T10:49:28.889Z,585
2018-07-27T10:50:28.491Z,620
2018-07-27T10:51:28.884Z,600
2018-07-27T10:52:28.883Z,580
2018-07-27T10:53:28.906Z,560
2018-07-27T10:54:28.396Z,535
2018-07-27T10:55:28.679Z,505
2018-07-27T10:56:28.844Z,480
2018-07-27T10:57:28.422Z,465
2018-07-27T10:58:28.932Z,470
2018-07-27T10:59:28.707Z,480
2018-07-27T11:00:28.441Z,450
2018-07-27T11:01:28.957Z,485
2018-07-27T11:02:29.414Z,510
2018-07-27T11:03:28.717Z,485
2018-07-27T11:04:28.971Z,480
2018-07-27T11:05:28.988Z,465
2018-07-27T11:06:29.009Z,435
2018-07-27T11:07:29.014Z,415
2018-07-27T11:08:29.028Z,415
2018-07-27T11:09:29.016Z,430
2018-07-27T11:10:29.030Z,455
2018-07-27T11:11:29.235Z,490
2018-07-27T11:12:28.534Z,545
2018-07-27T11:13:29.251Z,570
2018-07-27T11:14:28.545Z,555
2018-07-27T11:15:29.265Z,500
2018-07-27T11:16:29.422Z,430
2018-07-27T11:17:29.259Z,415
2018-07-27T11:18:29.090Z,410
2018-07-27T11:19:28.344Z,425
2018-07-27T11:20:28.872Z,420
2018-07-27T11:21:28.860Z,415
2018-07-27T11:22:29.150Z,425
2018-07-27T11:23:28.869Z,435
2018-07-27T11:24:28.890Z,430
2018-07-27T11:25:29.187Z,425
2018-07-27T11:26:29.169Z,435
2018-07-27T11:27:29.158Z,425
2018-07-27T11:28:29.161Z,425
2018-07-27T11:29:28.413Z,440
2018-07-27T11:30:28.923Z,430
2018-07-27T11:31:28.683Z,440
2018-07-27T11:32:29.201Z,450
2018-07-27T11:33:29.203Z,465
2018-07-27T11:34:29.219Z,480
2018-07-27T11:35:29.217Z,505
2018-07-27T11:36:29.247Z,475
2018-07-27T11:37:29.307Z,440
2018-07-27T11:38:29.249Z,440
2018-07-27T11:39:29.268Z,445
2018-07-27T11:40:29.010Z,400
2018-07-27T11:41:29.051Z,335
2018-07-27T11:42:29.511Z,305
2018-07-27T11:43:29.287Z,305
2018-07-27T11:44:28.810Z,315
2018-07-27T11:45:29.051Z,320
2018-07-27T11:46:28.800Z,325
2018-07-27T11:47:29.325Z,335
2018-07-27T11:48:29.116Z,360
2018-07-27T11:49:29.535Z,380
2018-07-27T11:50:29.101Z,400
2018-07-27T11:51:29.118Z,440
2018-07-27T11:52:29.106Z,480
2018-07-27T11:53:28.855Z,525
2018-07-27T11:54:28.874Z,555
2018-07-27T11:55:29.384Z,540
2018-07-27T11:56:29.130Z,530
2018-07-27T11:57:29.402Z,520
2018-07-27T11:58:29.152Z,500
2018-07-27T11:59:29.153Z,480
2018-07-27T12:00:29.742Z,460
2018-07-27T12:01:29.168Z,465
2018-07-27T12:02:28.919Z,475
2018-07-27T12:03:29.441Z,490
2018-07-27T12:04:29.192Z,485
2018-07-27T12:05:29.455Z,475
2018-07-27T12:06:29.236Z,490
2018-07-27T12:07:29.217Z,515
2018-07-27T12:08:28.970Z,585
2018-07-27T12:09:28.973Z,550
2018-07-27T12:10:29.508Z,480
2018-07-27T12:11:29.050Z,440
2018-07-27T12:12:29.022Z,410
2018-07-27T12:13:29.037Z,420
2018-07-27T12:14:30.508Z,385
2018-07-27T12:15:29.787Z,355
2018-07-27T12:16:29.306Z,345
2018-07-27T12:17:29.294Z,340
2018-07-27T12:18:29.304Z,350
2018-07-27T12:19:29.060Z,355
2018-07-27T12:20:29.874Z,385
2018-07-27T12:21:29.505Z,415
2018-07-27T12:22:29.333Z,430
2018-07-27T12:23:29.591Z,450
2018-07-27T12:24:29.594Z,465
2018-07-27T12:25:29.598Z,480
2018-07-27T12:26:29.370Z,485
2018-07-27T12:27:29.629Z,475
2018-07-27T12:28:29.123Z,485
2018-07-27T12:29:29.389Z,500
2018-07-27T12:30:28.927Z,525
2018-07-27T12:31:29.652Z,500
2018-07-27T12:32:29.664Z,470
2018-07-27T12:33:29.687Z,465
2018-07-27T12:34:29.706Z,450
2018-07-27T12:35:29.446Z,415
2018-07-27T12:36:29.450Z,390
2018-07-27T12:37:29.694Z,385
2018-07-27T12:38:29.716Z,395
2018-07-27T12:39:29.213Z,400
2018-07-27T12:40:29.722Z,395
2018-07-27T12:41:29.725Z,405
2018-07-27T12:42:29.736Z,415
2018-07-27T12:43:29.488Z,430
2018-07-27T12:44:29.547Z,455
2018-07-27T12:45:29.509Z,460
2018-07-27T12:46:29.528Z,475
2018-07-27T12:47:29.534Z,480
2018-07-27T12:48:29.530Z,475
2018-07-27T12:49:29.820Z,460
2018-07-27T12:50:29.565Z,450
2018-07-27T12:51:30.102Z,450
2018-07-27T12:52:29.562Z,450
2018-07-27T12:53:29.837Z,445
2018-07-27T12:54:29.879Z,420
2018-07-27T12:55:29.829Z,415
2018-07-27T12:56:29.835Z,410
2018-07-27T12:57:29.850Z,410
2018-07-27T12:58:29.878Z,405
2018-07-27T12:59:29.806Z,390
2018-07-27T13:00:29.369Z,390
2018-07-27T13:01:29.880Z,385
2018-07-27T13:02:29.890Z,400
2018-07-27T13:03:29.646Z,415
2018-07-27T13:04:29.895Z,420
2018-07-27T13:05:29.928Z,430
2018-07-27T13:06:29.914Z,425
2018-07-27T13:07:29.925Z,435
2018-07-27T13:08:29.941Z,440
2018-07-27T13:09:29.936Z,445
2018-07-27T13:10:29.685Z,445
2018-07-27T13:11:29.696Z,470
2018-07-27T13:12:29.991Z,515
2018-07-27T13:13:29.833Z,565
2018-07-27T13:14:29.974Z,580
2018-07-27T13:15:29.743Z,600
2018-07-27T13:16:29.736Z,600
2018-07-27T13:17:29.990Z,580
2018-07-27T13:18:30.014Z,570
2018-07-27T13:19:29.754Z,565
2018-07-27T13:20:29.767Z,535
2018-07-27T13:21:29.775Z,475
2018-07-27T13:22:31.324Z,420
2018-07-27T13:23:29.803Z,380
2018-07-27T13:25:00.538Z,340
2018-07-27T13:25:29.876Z,340
2018-07-27T13:26:32.990Z,330
2018-07-27T13:27:30.094Z,325
2018-07-27T13:28:29.844Z,330
2018-07-27T13:29:30.096Z,345
2018-07-27T13:30:29.958Z,340
2018-07-27T13:31:30.142Z,335
2018-07-27T13:32:30.135Z,335
2018-07-27T13:33:29.886Z,325
2018-07-27T13:34:29.911Z,335
2018-07-27T13:35:29.701Z,360
2018-07-27T13:36:29.907Z,385
2018-07-27T13:38:30.375Z,410
2018-07-27T13:39:29.940Z,425
2018-07-27T13:40:29.930Z,425
2018-07-27T13:41:30.493Z,420
2018-07-27T13:42:29.686Z,415
2018-07-27T13:43:29.953Z,410
2018-07-27T13:44:29.956Z,415
2018-07-27T13:45:29.974Z,415
2018-07-27T13:46:30.062Z,425
2018-07-27T13:47:30.452Z,440
2018-07-27T13:48:30.244Z,465
2018-07-27T13:49:29.993Z,480
2018-07-27T13:50:29.999Z,505
2018-07-27T13:51:30.014Z,525
2018-07-27T13:52:29.763Z,540
2018-07-27T13:53:30.034Z,565
2018-07-27T13:54:30.315Z,585
2018-07-27T13:55:30.033Z,585
2018-07-27T13:56:30.301Z,570
2018-07-27T13:57:30.379Z,540
2018-07-27T13:58:29.818Z,500
2018-07-27T13:59:30.079Z,455
2018-07-27T14:00:30.087Z,410